Time;durP1;ratioP1;P1;durP2;ratioP2;P2;SDS_P1;SDS_P2;PMS_P1;PMS_P2;Temp;Humidity;BMP_temperature;BMP_pressure;BME280_temperature;BME280_humidity;BME280_pressure;Samples;Min_cycle;Max_cycle;Signal;HPM_P1;HPM_P2
2022/04/19 00:01:07;;;;;;;2.30;2.20;;;5.80;99.90;;;;;;492238;241;27337;-73
2022/04/19 00:03:08;;;;;;;2.08;1.98;;;5.80;99.90;;;;;;492189;241;27307;-72
2022/04/19 00:05:09;;;;;;;1.80;1.70;;;5.60;99.90;;;;;;492224;241;27675;-73
2022/04/19 00:07:11;;;;;;;1.87;1.77;;;5.50;99.90;;;;;;492250;241;27326;-74
2022/04/19 00:09:12;;;;;;;1.97;1.87;;;5.40;99.90;;;;;;492210;241;27767;-73
2022/04/19 00:11:13;;;;;;;2.17;1.98;;;5.20;99.90;;;;;;492174;241;28469;-73
2022/04/19 00:13:16;;;;;;;1.90;1.80;;;5.10;99.90;;;;;;494680;237;27953;-74
2022/04/19 00:15:16;;;;;;;2.10;2.00;;;5.00;99.90;;;;;;496750;237;27580;-73
2022/04/19 00:17:18;;;;;;;1.90;1.80;;;5.00;99.90;;;;;;499374;237;27473;-74
2022/04/19 00:19:18;;;;;;;2.15;2.00;;;5.10;99.90;;;;;;496385;237;27475;-73
2022/04/19 00:21:20;;;;;;;1.87;1.80;;;5.10;99.90;;;;;;493248;241;27595;-73
2022/04/19 00:23:21;;;;;;;2.20;2.10;;;5.10;99.90;;;;;;493526;237;27490;-75
2022/04/19 00:25:22;;;;;;;2.25;2.00;;;5.10;99.90;;;;;;498672;237;27900;-73
2022/04/19 00:27:23;;;;;;;2.12;2.00;;;5.20;99.90;;;;;;496165;237;27902;-73
2022/04/19 00:29:25;;;;;;;1.83;1.73;;;5.30;99.90;;;;;;492187;241;27802;-73
2022/04/19 00:31:26;;;;;;;1.80;1.70;;;5.30;99.90;;;;;;492214;241;27808;-73
2022/04/19 00:33:29;;;;;;;2.30;2.20;;;5.30;99.90;;;;;;492242;241;27334;-73
2022/04/19 00:35:28;;;;;;;1.98;1.87;;;5.30;99.90;;;;;;492201;239;27291;-73
2022/04/19 00:37:30;;;;;;;2.87;2.15;;;5.20;99.90;;;;;;492232;241;27323;-73
2022/04/19 00:39:31;;;;;;;2.15;2.05;;;5.00;99.90;;;;;;492231;241;27292;-73
2022/04/19 00:41:32;;;;;;;2.22;2.12;;;5.00;99.90;;;;;;492149;241;27327;-73
2022/04/19 00:43:33;;;;;;;2.30;2.20;;;5.00;99.90;;;;;;494035;237;27834;-73
2022/04/19 00:45:35;;;;;;;2.15;2.05;;;5.00;99.90;;;;;;499670;237;28022;-73
2022/04/19 00:47:38;;;;;;;1.83;1.70;;;5.10;99.90;;;;;;501026;237;27570;-73
2022/04/19 00:49:37;;;;;;;2.00;1.90;;;5.10;99.90;;;;;;499014;236;27435;-72
2022/04/19 00:51:38;;;;;;;1.92;1.83;;;5.10;99.90;;;;;;497363;237;27460;-72
2022/04/19 00:53:40;;;;;;;2.00;1.90;;;5.10;99.90;;;;;;495501;237;27479;-75
2022/04/19 00:55:42;;;;;;;1.80;1.70;;;5.10;99.90;;;;;;501005;237;27417;-72
2022/04/19 00:57:42;;;;;;;2.00;1.90;;;5.20;99.90;;;;;;500958;237;27373;-72
2022/04/19 00:59:43;;;;;;;2.00;1.90;;;5.20;99.90;;;;;;494725;239;28704;-73
2022/04/19 01:01:45;;;;;;;2.00;1.90;;;5.20;99.90;;;;;;492180;241;27769;-73
2022/04/19 01:03:46;;;;;;;2.45;2.25;;;5.20;99.90;;;;;;492230;241;27327;-73
2022/04/19 01:05:47;;;;;;;2.25;2.15;;;5.20;99.90;;;;;;492225;241;27287;-73
2022/04/19 01:07:48;;;;;;;2.20;2.10;;;5.20;99.90;;;;;;497391;237;27458;-72
2022/04/19 01:09:50;;;;;;;2.12;2.03;;;5.20;99.90;;;;;;492782;241;27422;-73
2022/04/19 01:14:12;;;;;;;1.65;1.60;;;5.20;99.90;;;;;;495508;237;27375;-72
2022/04/19 01:16:12;;;;;;;2.12;2.03;;;5.30;99.90;;;;;;500972;237;27417;-72
2022/04/19 01:18:13;;;;;;;2.20;2.10;;;5.40;99.90;;;;;;497978;237;27486;-72
2022/04/19 01:20:14;;;;;;;2.50;2.30;;;5.40;99.90;;;;;;497533;238;27545;-74
2022/04/19 01:22:16;;;;;;;2.00;1.90;;;5.40;99.90;;;;;;498746;238;27445;-73
2022/04/19 01:24:18;;;;;;;2.00;1.90;;;5.30;99.90;;;;;;498814;238;27951;-73
2022/04/19 01:26:18;;;;;;;2.05;1.92;;;5.30;99.90;;;;;;498813;238;27890;-73
2022/04/19 01:28:20;;;;;;;1.80;1.70;;;5.20;99.90;;;;;;498770;238;27471;-73
2022/04/19 01:30:21;;;;;;;2.05;1.95;;;5.10;99.90;;;;;;498803;238;27485;-74
2022/04/19 01:32:22;;;;;;;1.73;1.62;;;5.10;99.90;;;;;;498775;238;27458;-73
2022/04/19 01:34:23;;;;;;;2.03;1.85;;;5.00;99.90;;;;;;498746;238;27501;-73
2022/04/19 01:36:24;;;;;;;2.30;2.17;;;4.90;99.90;;;;;;498699;238;27437;-72
2022/04/19 01:38:26;;;;;;;1.70;1.60;;;4.90;99.90;;;;;;498631;238;27926;-73
2022/04/19 01:40:27;;;;;;;2.10;2.00;;;4.90;99.90;;;;;;498723;238;27995;-74
2022/04/19 01:42:30;;;;;;;1.90;1.80;;;4.90;99.90;;;;;;498708;238;27988;-73
2022/04/19 01:44:29;;;;;;;2.65;2.45;;;4.80;99.90;;;;;;498846;237;27483;-71
2022/04/19 01:46:31;;;;;;;2.35;2.15;;;4.60;99.90;;;;;;496071;237;27505;-70
2022/04/19 01:48:32;;;;;;;2.00;1.90;;;4.50;99.90;;;;;;499476;237;27432;-73
2022/04/19 01:50:33;;;;;;;1.90;1.80;;;4.50;99.90;;;;;;500058;237;27493;-74
2022/04/19 01:52:35;;;;;;;2.47;2.03;;;4.50;99.90;;;;;;497194;237;27541;-73
2022/04/19 01:54:36;;;;;;;1.98;1.87;;;4.50;99.90;;;;;;499171;237;28011;-72
2022/04/19 01:56:37;;;;;;;2.00;1.90;;;4.40;99.90;;;;;;499482;237;29013;-72
2022/04/19 01:58:38;;;;;;;2.10;2.00;;;4.50;99.90;;;;;;500179;237;27486;-72
2022/04/19 02:00:39;;;;;;;2.20;2.00;;;4.50;99.90;;;;;;498166;237;27468;-74
2022/04/19 02:02:43;;;;;;;2.00;1.90;;;4.40;99.90;;;;;;496593;237;27533;-74
2022/04/19 02:04:42;;;;;;;2.00;1.90;;;4.40;99.90;;;;;;499749;237;27377;-73
2022/04/19 02:06:43;;;;;;;2.25;2.12;;;4.40;99.90;;;;;;499714;237;27842;-73
2022/04/19 02:08:44;;;;;;;2.22;2.12;;;4.40;99.90;;;;;;495764;237;27467;-73
2022/04/19 02:10:46;;;;;;;1.92;1.83;;;4.40;99.90;;;;;;498588;237;27985;-74
2022/04/19 02:12:47;;;;;;;2.35;2.20;;;4.40;99.90;;;;;;500925;237;27958;-73
2022/04/19 02:14:48;;;;;;;1.80;1.70;;;4.40;99.90;;;;;;499925;237;27945;-73
2022/04/19 02:16:52;;;;;;;1.98;1.87;;;4.40;99.90;;;;;;499194;237;27575;-73
2022/04/19 02:18:51;;;;;;;2.30;2.10;;;4.40;99.90;;;;;;500388;237;27417;-73
2022/04/19 02:20:52;;;;;;;2.00;1.80;;;4.40;99.90;;;;;;500572;237;27395;-74
2022/04/19 02:22:53;;;;;;;2.30;2.20;;;4.50;99.90;;;;;;498749;237;27429;-71
2022/04/19 02:24:56;;;;;;;2.00;1.90;;;4.40;99.90;;;;;;496534;237;27535;-71
2022/04/19 02:26:57;;;;;;;2.42;1.98;;;4.40;99.90;;;;;;496041;237;27482;-71
2022/04/19 02:28:58;;;;;;;1.95;1.80;;;4.30;99.90;;;;;;492672;241;27853;-71
2022/04/19 02:30:58;;;;;;;2.05;1.90;;;4.20;99.90;;;;;;498184;237;27479;-71
2022/04/19 02:33:02;;;;;;;1.80;1.70;;;4.20;99.90;;;;;;498949;237;27516;-70
2022/04/19 02:35:01;;;;;;;1.90;1.80;;;4.30;99.90;;;;;;500348;237;27551;-70
2022/04/19 02:37:02;;;;;;;1.92;1.83;;;4.30;99.90;;;;;;498706;237;27418;-71
2022/04/19 02:39:03;;;;;;;1.90;1.80;;;4.30;99.90;;;;;;499080;237;27473;-71
2022/04/19 02:41:05;;;;;;;1.90;1.80;;;4.30;99.90;;;;;;496824;237;27597;-72
2022/04/19 02:43:06;;;;;;;3.12;2.08;;;4.20;99.90;;;;;;496429;237;27440;-73
2022/04/19 02:45:07;;;;;;;1.90;1.80;;;4.20;99.90;;;;;;499138;237;27580;-73
2022/04/19 02:47:08;;;;;;;2.00;1.90;;;4.20;99.90;;;;;;498367;237;28453;-72
2022/04/19 02:49:10;;;;;;;2.42;1.65;;;4.10;99.90;;;;;;499684;237;27976;-71
2022/04/19 02:51:11;;;;;;;2.10;2.00;;;4.10;99.90;;;;;;497304;237;27943;-71
2022/04/19 02:53:12;;;;;;;2.30;2.10;;;4.10;99.90;;;;;;499322;237;27456;-71
2022/04/19 02:55:13;;;;;;;1.90;1.80;;;4.10;99.90;;;;;;499104;237;27516;-71
2022/04/19 02:57:15;;;;;;;2.12;2.03;;;4.00;99.90;;;;;;499381;237;27478;-71
2022/04/19 02:59:16;;;;;;;2.10;2.00;;;4.00;99.90;;;;;;496695;237;27412;-71
2022/04/19 03:01:18;;;;;;;2.15;2.05;;;4.10;99.90;;;;;;498682;237;27475;-71
2022/04/19 03:03:18;;;;;;;2.60;2.30;;;4.00;99.90;;;;;;500381;237;27342;-71
2022/04/19 03:05:20;;;;;;;2.50;2.30;;;4.10;99.90;;;;;;497370;237;27552;-71
2022/04/19 03:07:21;;;;;;;2.25;2.05;;;4.10;99.90;;;;;;497342;237;28787;-70
2022/04/19 03:09:22;;;;;;;2.30;2.20;;;4.10;99.90;;;;;;493726;237;28065;-71
2022/04/19 03:11:23;;;;;;;2.47;2.28;;;4.00;99.90;;;;;;497890;237;27994;-71
2022/04/19 03:13:27;;;;;;;2.03;1.92;;;4.00;99.90;;;;;;500851;237;27488;-71
2022/04/19 03:15:27;;;;;;;2.40;2.20;;;3.90;99.90;;;;;;498486;236;27455;-71
2022/04/19 03:17:27;;;;;;;2.00;1.90;;;3.90;99.90;;;;;;495912;237;27468;-70
2022/04/19 03:19:28;;;;;;;2.00;1.90;;;3.80;99.90;;;;;;495733;237;27371;-71
2022/04/19 03:21:30;;;;;;;2.00;1.90;;;3.90;99.90;;;;;;496686;239;27474;-72
2022/04/19 03:28:10;;;;;;;2.00;1.90;;;3.80;99.90;;;;;;497243;238;28088;-73
2022/04/19 03:30:14;;;;;;;2.15;2.05;;;3.80;99.90;;;;;;497187;238;27984;-73
2022/04/19 03:32:16;;;;;;;2.15;2.05;;;3.70;99.90;;;;;;497234;238;27565;-73
2022/04/19 03:34:18;;;;;;;2.10;2.00;;;3.60;99.90;;;;;;497179;238;27590;-73
2022/04/19 03:36:18;;;;;;;2.12;2.03;;;3.50;99.90;;;;;;497161;238;27573;-73
2022/04/19 03:38:19;;;;;;;2.20;2.10;;;3.50;99.90;;;;;;497208;238;27435;-72
2022/04/19 03:40:21;;;;;;;2.97;1.80;;;3.50;99.90;;;;;;497405;237;27560;-73
2022/04/19 03:42:22;;;;;;;2.30;2.10;;;3.50;99.90;;;;;;500505;237;27871;-73
2022/04/19 03:44:25;;;;;;;2.25;2.15;;;3.40;99.90;;;;;;500844;237;27931;-73
2022/04/19 03:46:24;;;;;;;2.08;1.98;;;3.50;99.90;;;;;;494050;236;27974;-76
2022/04/19 03:48:26;;;;;;;2.15;2.05;;;3.50;99.90;;;;;;498434;237;27448;-71
2022/04/19 03:50:27;;;;;;;2.22;2.03;;;3.50;99.90;;;;;;493290;238;27593;-73
2022/04/19 03:52:28;;;;;;;2.00;1.90;;;3.50;99.90;;;;;;493526;241;27474;-73
2022/04/19 03:54:31;;;;;;;2.03;1.92;;;3.60;99.90;;;;;;494812;237;27506;-73
2022/04/19 03:56:31;;;;;;;2.40;2.20;;;3.70;99.90;;;;;;499412;237;27943;-73
2022/04/19 03:58:32;;;;;;;2.50;2.35;;;3.60;99.90;;;;;;500755;237;27456;-71
2022/04/19 04:00:33;;;;;;;2.97;2.78;;;3.70;99.90;;;;;;501090;237;27772;-72
2022/04/19 04:02:34;;;;;;;2.53;2.42;;;3.80;99.90;;;;;;501041;237;27976;-71
2022/04/19 04:04:36;;;;;;;2.50;2.30;;;3.70;99.90;;;;;;501074;237;28057;-72
2022/04/19 04:06:37;;;;;;;2.50;2.40;;;3.70;99.90;;;;;;501018;237;27977;-70
2022/04/19 04:08:38;;;;;;;2.20;2.10;;;3.70;99.90;;;;;;501098;237;27457;-71
2022/04/19 04:10:39;;;;;;;2.60;2.50;;;3.70;99.90;;;;;;501089;237;27691;-71
2022/04/19 04:12:41;;;;;;;2.40;2.20;;;3.70;99.90;;;;;;500787;237;27436;-71
2022/04/19 04:14:43;;;;;;;2.40;2.30;;;3.70;99.90;;;;;;494740;237;27410;-71
2022/04/19 04:16:43;;;;;;;2.15;2.05;;;3.60;99.90;;;;;;496474;237;27491;-73
2022/04/19 04:18:44;;;;;;;2.58;2.45;;;3.70;99.90;;;;;;494680;238;27385;-71
2022/04/19 04:20:47;;;;;;;2.12;2.03;;;3.70;99.90;;;;;;497205;238;27513;-74
2022/04/19 04:22:47;;;;;;;2.00;1.90;;;3.70;99.90;;;;;;497133;238;27509;-71
2022/04/19 04:24:48;;;;;;;2.12;2.03;;;3.70;99.90;;;;;;497191;238;27502;-72
2022/04/19 04:26:49;;;;;;;2.20;2.10;;;3.70;99.90;;;;;;497217;238;28039;-71
2022/04/19 04:28:51;;;;;;;2.00;1.90;;;3.60;99.90;;;;;;497210;238;27902;-71
2022/04/19 04:30:52;;;;;;;2.22;2.12;;;3.60;99.90;;;;;;497216;238;27963;-71
2022/04/19 04:32:53;;;;;;;3.40;2.20;;;3.40;99.90;;;;;;497178;238;27463;-71
2022/04/19 04:34:54;;;;;;;2.40;2.30;;;3.30;99.90;;;;;;497160;238;27463;-71
2022/04/19 04:36:56;;;;;;;2.40;2.30;;;3.30;99.90;;;;;;497233;238;27490;-72
2022/04/19 04:38:57;;;;;;;2.75;2.40;;;3.30;99.90;;;;;;497189;238;27493;-71
2022/04/19 04:40:58;;;;;;;2.22;2.12;;;3.30;99.90;;;;;;497189;238;27581;-71
2022/04/19 04:42:59;;;;;;;2.85;2.65;;;3.30;99.90;;;;;;489597;241;27441;-71
2022/04/19 04:45:01;;;;;;;2.65;2.45;;;3.30;99.90;;;;;;491810;239;27439;-71
2022/04/19 04:49:37;;;;;;;2.00;1.90;;;3.50;99.90;;;;;;489034;240;28025;-73
2022/04/19 04:51:38;;;;;;;2.40;2.10;;;3.40;99.90;;;;;;486509;240;28030;-72
2022/04/19 04:53:39;;;;;;;2.55;2.35;;;3.40;99.90;;;;;;489960;239;27908;-71
2022/04/19 04:55:41;;;;;;;2.62;2.42;;;3.50;99.90;;;;;;493027;239;28072;-71
2022/04/19 04:57:42;;;;;;;2.20;2.10;;;3.50;99.90;;;;;;497106;239;28698;-71
2022/04/19 04:59:44;;;;;;;3.17;2.20;;;3.50;99.90;;;;;;494165;239;27543;-71
2022/04/19 05:01:44;;;;;;;2.85;2.65;;;3.50;99.90;;;;;;485930;243;27347;-71
2022/04/19 05:03:46;;;;;;;2.40;2.30;;;3.60;99.90;;;;;;485060;245;27322;-71
2022/04/19 05:05:47;;;;;;;2.80;2.60;;;3.70;99.90;;;;;;492156;241;27500;-71
2022/04/19 05:07:48;;;;;;;3.00;2.83;;;3.70;99.90;;;;;;492206;241;27409;-71
2022/04/19 05:09:49;;;;;;;3.00;2.80;;;3.70;99.90;;;;;;492175;241;27381;-72
2022/04/19 05:11:52;;;;;;;2.67;2.45;;;3.70;99.90;;;;;;492173;241;27499;-72
2022/04/19 05:13:52;;;;;;;3.28;2.90;;;3.80;99.90;;;;;;491380;237;27370;-71
2022/04/19 05:15:53;;;;;;;2.70;2.50;;;3.80;99.90;;;;;;497801;237;27993;-71
2022/04/19 05:17:54;;;;;;;2.78;2.58;;;3.80;99.90;;;;;;492155;241;28648;-71
2022/04/19 05:19:56;;;;;;;2.80;2.60;;;3.90;99.90;;;;;;491104;241;27817;-71
2022/04/19 05:21:57;;;;;;;2.30;2.20;;;3.80;99.90;;;;;;493221;239;27465;-72
2022/04/19 05:23:58;;;;;;;2.58;2.37;;;3.80;99.90;;;;;;497219;238;27908;-71
2022/04/19 05:25:59;;;;;;;2.50;2.30;;;3.70;99.90;;;;;;494757;239;28193;-72
2022/04/19 05:28:01;;;;;;;2.72;2.50;;;3.80;99.90;;;;;;489420;243;28023;-72
2022/04/19 05:30:02;;;;;;;3.58;2.85;;;3.90;99.90;;;;;;489434;242;27369;-72
2022/04/19 05:32:03;;;;;;;2.62;2.42;;;3.90;99.90;;;;;;489394;242;27412;-71
2022/04/19 05:34:04;;;;;;;2.30;2.20;;;3.80;99.90;;;;;;489434;242;27372;-71
2022/04/19 05:36:06;;;;;;;2.20;2.08;;;3.80;99.90;;;;;;489426;242;27452;-72
2022/04/19 05:38:07;;;;;;;2.60;2.40;;;3.80;99.90;;;;;;489381;242;27768;-73
2022/04/19 05:40:08;;;;;;;2.20;2.10;;;3.90;99.90;;;;;;489442;242;27361;-72
2022/04/19 05:42:09;;;;;;;2.17;2.08;;;3.80;99.90;;;;;;489407;242;28009;-71
2022/04/19 05:44:11;;;;;;;2.37;2.28;;;3.80;99.90;;;;;;489450;242;27944;-71
2022/04/19 05:46:12;;;;;;;2.50;2.40;;;3.90;99.90;;;;;;489429;242;27982;-72
2022/04/19 05:48:13;;;;;;;2.50;2.40;;;4.00;99.90;;;;;;489433;242;27400;-74
2022/04/19 05:50:14;;;;;;;3.15;2.95;;;4.10;99.90;;;;;;489403;242;27471;-71
2022/04/19 05:52:16;;;;;;;3.05;2.85;;;4.20;99.90;;;;;;483660;242;27537;-72
2022/04/19 05:54:17;;;;;;;3.05;2.85;;;4.30;99.90;;;;;;484898;245;27445;-70
2022/04/19 05:56:18;;;;;;;2.85;2.65;;;4.40;99.90;;;;;;483522;246;27502;-72
2022/04/19 05:58:19;;;;;;;3.15;2.87;;;4.50;99.90;;;;;;492049;241;27504;-72
2022/04/19 06:00:21;;;;;;;3.60;2.05;;;4.60;99.90;;;;;;492191;241;27469;-71
2022/04/19 06:04:54;;;;;;;2.00;1.90;;;4.70;99.90;;;;;;492055;241;27525;-74
2022/04/19 06:06:55;;;;;;;1.62;1.62;;;4.90;99.90;;;;;;492068;241;27909;-72
2022/04/19 06:08:56;;;;;;;2.37;2.28;;;5.00;99.90;;;;;;491921;237;27979;-72
2022/04/19 06:10:57;;;;;;;2.10;2.00;;;5.10;99.90;;;;;;492102;241;28046;-72
2022/04/19 06:12:59;;;;;;;2.12;2.03;;;5.20;99.90;;;;;;492146;241;27449;-71
2022/04/19 06:15:00;;;;;;;2.42;2.33;;;5.20;99.90;;;;;;492147;241;27502;-73
2022/04/19 06:17:01;;;;;;;2.47;2.35;;;5.30;99.90;;;;;;492417;236;27441;-72
2022/04/19 06:19:02;;;;;;;2.45;2.35;;;5.30;99.90;;;;;;496040;236;27482;-72
2022/04/19 06:21:07;;;;;;;2.25;2.15;;;5.40;99.90;;;;;;497480;236;27490;-71
2022/04/19 06:23:05;;;;;;;2.30;2.20;;;5.40;99.90;;;;;;494620;234;27800;-72
2022/04/19 06:25:06;;;;;;;2.45;2.35;;;5.50;99.90;;;;;;495103;236;28032;-71
2022/04/19 06:27:08;;;;;;;2.40;2.30;;;5.50;99.90;;;;;;495005;236;27372;-71
2022/04/19 06:29:09;;;;;;;2.30;2.20;;;5.60;99.90;;;;;;495249;236;27478;-71
2022/04/19 06:31:10;;;;;;;2.33;2.20;;;5.60;99.90;;;;;;496429;236;27355;-71
2022/04/19 06:33:11;;;;;;;2.00;1.90;;;5.70;99.90;;;;;;493792;236;27342;-72
2022/04/19 06:35:12;;;;;;;2.08;1.98;;;5.80;99.90;;;;;;493213;236;27373;-72
2022/04/19 06:37:14;;;;;;;2.15;2.05;;;5.90;99.90;;;;;;497666;236;28035;-72
2022/04/19 06:39:15;;;;;;;2.45;2.25;;;6.00;99.90;;;;;;495607;236;28036;-73
2022/04/19 06:41:16;;;;;;;2.17;2.08;;;6.10;99.90;;;;;;494934;236;27373;-74
2022/04/19 06:43:17;;;;;;;2.70;2.58;;;6.20;99.90;;;;;;498246;236;27516;-71
2022/04/19 06:45:19;;;;;;;2.47;2.35;;;6.30;99.90;;;;;;495832;236;27406;-72
2022/04/19 06:47:20;;;;;;;2.28;2.17;;;6.50;99.90;;;;;;499102;236;27875;-72
2022/04/19 06:49:21;;;;;;;2.40;2.30;;;6.60;99.90;;;;;;493721;236;27852;-71
2022/04/19 06:51:22;;;;;;;2.30;2.20;;;6.70;99.90;;;;;;494908;236;27489;-75
2022/04/19 06:53:26;;;;;;;2.30;2.20;;;6.80;99.90;;;;;;492706;236;27413;-73
2022/04/19 06:55:25;;;;;;;2.10;2.00;;;6.90;99.90;;;;;;493900;236;28408;-75
2022/04/19 06:57:26;;;;;;;2.67;2.40;;;7.00;99.90;;;;;;494761;236;27655;-74
2022/04/19 06:59:27;;;;;;;2.13;2.03;;;7.10;99.90;;;;;;494668;236;27915;-74
2022/04/19 07:01:29;;;;;;;2.30;2.10;;;7.10;99.90;;;;;;495137;236;27697;-74
2022/04/19 07:03:30;;;;;;;2.50;2.40;;;7.20;99.90;;;;;;497092;236;27783;-72
2022/04/19 07:05:31;;;;;;;2.80;2.60;;;7.40;99.90;;;;;;496475;236;27918;-71
2022/04/19 07:07:33;;;;;;;2.50;2.40;;;7.40;99.90;;;;;;496545;236;27891;-74
2022/04/19 07:09:34;;;;;;;3.00;2.80;;;7.60;99.90;;;;;;493770;236;27711;-73
2022/04/19 07:11:37;;;;;;;3.50;2.23;;;7.60;99.90;;;;;;495440;236;27504;-72
2022/04/19 07:13:37;;;;;;;2.23;2.13;;;7.70;99.90;;;;;;498474;236;28324;-71
2022/04/19 07:15:38;;;;;;;2.30;2.20;;;7.90;99.90;;;;;;495579;236;28202;-73
2022/04/19 07:17:39;;;;;;;2.10;2.00;;;8.00;99.90;;;;;;494339;236;28119;-73
2022/04/19 07:26:40;;;;;;;1.80;1.70;;;8.50;99.90;;;;;;493788;236;27782;-72
2022/04/19 07:28:40;;;;;;;1.90;1.80;;;8.60;99.90;;;;;;493953;236;27969;-72
2022/04/19 07:30:41;;;;;;;1.83;1.73;;;8.70;99.90;;;;;;495773;236;27831;-73
2022/04/19 07:32:42;;;;;;;2.57;2.47;;;8.90;99.90;;;;;;493583;236;27809;-72
2022/04/19 07:34:44;;;;;;;2.80;2.60;;;9.40;99.90;;;;;;495353;236;28195;-74
2022/04/19 07:36:45;;;;;;;2.80;2.60;;;9.70;99.90;;;;;;495986;236;28033;-74
2022/04/19 07:38:46;;;;;;;4.90;3.07;;;10.20;99.90;;;;;;493858;236;27988;-72
2022/04/19 07:40:47;;;;;;;6.93;3.33;;;10.80;99.90;;;;;;494746;236;28143;-73
2022/04/19 07:42:49;;;;;;;5.90;4.20;;;11.10;99.90;;;;;;496629;236;28447;-73
2022/04/19 07:44:50;;;;;;;5.90;3.47;;;11.40;99.90;;;;;;498477;236;28103;-74
2022/04/19 07:46:51;;;;;;;5.73;4.10;;;11.60;99.90;;;;;;495843;236;27954;-71
2022/04/19 07:48:52;;;;;;;5.20;4.00;;;11.50;99.90;;;;;;493647;236;27934;-73
2022/04/19 07:50:54;;;;;;;5.77;4.33;;;11.60;99.90;;;;;;494757;236;27954;-76
2022/04/19 07:52:55;;;;;;;4.97;3.40;;;11.80;99.90;;;;;;497374;236;28099;-76
2022/04/19 07:54:56;;;;;;;5.60;3.30;;;11.80;99.90;;;;;;493382;236;27909;-74
2022/04/19 07:56:57;;;;;;;3.47;3.17;;;11.60;99.90;;;;;;496082;236;27972;-76
2022/04/19 07:58:59;;;;;;;4.27;3.10;;;11.60;99.90;;;;;;498459;236;28064;-72
2022/04/19 08:01:01;;;;;;;3.47;3.17;;;11.70;99.90;;;;;;494762;236;28457;-76
2022/04/19 08:03:02;;;;;;;5.40;3.33;;;11.80;99.90;;;;;;494956;236;28746;-71
2022/04/19 08:05:03;;;;;;;3.70;3.30;;;12.10;99.90;;;;;;497765;236;28676;-72
2022/04/19 08:07:06;;;;;;;4.60;3.40;;;12.10;99.90;;;;;;496730;236;28723;-72
2022/04/19 08:09:08;;;;;;;4.10;3.50;;;;;;;;;;495248;236;28530;-73
2022/04/19 08:11:08;;;;;;;4.40;3.37;;;11.80;99.90;;;;;;497744;236;27203;-72
2022/04/19 08:13:10;;;;;;;4.33;3.20;;;11.80;99.90;;;;;;493937;236;28409;-72
2022/04/19 08:15:11;;;;;;;3.00;2.70;;;11.80;99.90;;;;;;493890;236;28392;-73
2022/04/19 08:17:12;;;;;;;3.70;2.97;;;11.80;99.90;;;;;;497665;236;28730;-73
2022/04/19 08:19:13;;;;;;;4.10;2.90;;;11.90;99.90;;;;;;494228;236;28799;-74
2022/04/19 08:21:15;;;;;;;3.60;3.30;;;12.00;99.90;;;;;;496709;236;28315;-73
2022/04/19 08:23:16;;;;;;;3.17;2.87;;;12.50;99.90;;;;;;496166;236;29274;-73
2022/04/19 08:25:17;;;;;;;3.30;2.83;;;12.30;99.90;;;;;;493506;236;28672;-72
2022/04/19 08:27:18;;;;;;;4.00;3.17;;;12.30;99.90;;;;;;495131;234;29265;-75
2022/04/19 08:29:20;;;;;;;3.10;2.90;;;12.50;99.90;;;;;;495910;236;28052;-76
2022/04/19 08:31:21;;;;;;;3.27;2.70;;;12.60;99.90;;;;;;491042;241;28408;-72
2022/04/19 08:33:22;;;;;;;3.53;3.10;;;12.50;99.90;;;;;;491938;240;28466;-74
2022/04/19 08:35:24;;;;;;;4.30;3.00;;;12.20;99.90;;;;;;489120;241;28260;-72
2022/04/19 08:37:26;;;;;;;2.60;2.40;;;;;;;;;;486985;241;28349;-72
2022/04/19 08:39:27;;;;;;;2.50;2.30;;;12.30;99.90;;;;;;496696;238;27158;-77
2022/04/19 08:41:28;;;;;;;2.80;2.60;;;12.40;99.90;;;;;;490920;237;28541;-73
2022/04/19 08:43:30;;;;;;;3.03;2.70;;;12.40;99.90;;;;;;493347;237;29424;-73
2022/04/19 08:45:31;;;;;;;2.87;2.67;;;12.50;99.90;;;;;;489268;238;28340;-74
2022/04/19 08:47:33;;;;;;;2.97;2.67;;;12.50;99.20;;;;;;486185;240;28804;-72
2022/04/19 08:49:34;;;;;;;2.63;2.43;;;12.30;99.90;;;;;;490701;241;28186;-74
2022/04/19 08:51:35;;;;;;;2.80;2.60;;;12.50;99.90;;;;;;490185;241;28225;-75
2022/04/19 08:57:57;;;;;;;2.80;2.40;;;12.80;99.90;;;;;;489359;241;28545;-74
2022/04/19 08:59:59;;;;;;;2.33;2.23;;;;;;;;;;483726;241;28116;-74
2022/04/19 09:02:01;;;;;;;3.00;2.70;;;12.70;99.90;;;;;;489964;241;27050;-73
2022/04/19 09:04:04;;;;;;;3.13;2.90;;;12.90;99.80;;;;;;495533;238;29351;-73
2022/04/19 09:06:03;;;;;;;3.80;2.60;;;13.10;98.10;;;;;;488790;241;30201;-72
2022/04/19 09:08:04;;;;;;;3.40;2.90;;;13.00;98.40;;;;;;490348;241;28190;-72
2022/04/19 09:10:07;;;;;;;3.27;2.97;;;;;;;;;;487746;240;28809;-72
2022/04/19 09:12:08;;;;;;;3.27;3.03;;;13.10;99.70;;;;;;486158;241;26685;-72
2022/04/19 09:14:10;;;;;;;2.80;2.60;;;13.20;96.90;;;;;;495550;239;28828;-72
2022/04/19 09:16:11;;;;;;;3.10;2.80;;;13.20;98.30;;;;;;487892;241;28695;-72
2022/04/19 09:18:13;;;;;;;3.63;2.87;;;13.00;98.90;;;;;;491850;241;28536;-73
2022/04/19 09:20:15;;;;;;;2.63;2.43;;;13.10;98.90;;;;;;491754;240;28309;-73
2022/04/19 09:22:15;;;;;;;3.20;2.80;;;13.30;97.80;;;;;;491918;241;29043;-74
2022/04/19 09:24:18;;;;;;;3.60;2.90;;;13.00;98.30;;;;;;491523;240;28735;-72
2022/04/19 09:26:18;;;;;;;2.83;2.63;;;12.80;98.90;;;;;;492469;238;28691;-72
2022/04/19 09:28:21;;;;;;;3.13;2.93;;;;;;;;;;486018;241;28715;-72
2022/04/19 09:30:22;;;;;;;3.40;3.10;;;13.30;97.30;;;;;;491127;240;26586;-73
2022/04/19 09:32:24;;;;;;;3.80;2.93;;;;;;;;;;485502;241;28263;-75
2022/04/19 09:34:27;;;;;;;3.20;2.90;;;13.50;95.90;;;;;;484380;241;26620;-73
2022/04/19 09:36:27;;;;;;;3.10;2.77;;;13.60;95.70;;;;;;489018;241;28165;-74
2022/04/19 09:38:28;;;;;;;4.53;3.20;;;13.60;96.30;;;;;;489538;241;28314;-72
2022/04/19 09:40:29;;;;;;;3.50;3.20;;;13.50;95.10;;;;;;486437;241;28193;-72
2022/04/19 09:42:30;;;;;;;3.23;2.50;;;13.50;97.10;;;;;;487955;241;28776;-73
2022/04/19 09:44:32;;;;;;;3.27;2.97;;;13.60;98.10;;;;;;484328;241;28751;-73
2022/04/19 09:46:33;;;;;;;3.23;2.63;;;13.80;96.10;;;;;;486294;241;28390;-73
2022/04/19 09:48:37;;;;;;;3.40;3.07;;;13.80;94.10;;;;;;489213;241;28176;-76
2022/04/19 09:50:36;;;;;;;4.23;3.93;;;13.80;95.90;;;;;;486202;241;28162;-72
2022/04/19 09:52:43;;;;;;;3.97;3.50;;;13.90;94.70;;;;;;488355;241;28434;-72
2022/04/19 09:54:39;;;;;;;4.10;3.30;;;14.00;94.50;;;;;;485176;241;28132;-75
2022/04/19 09:56:40;;;;;;;4.57;3.10;;;14.10;95.20;;;;;;486787;241;28911;-75
2022/04/19 09:58:42;;;;;;;3.50;3.20;;;14.10;94.00;;;;;;487531;241;29161;-72
2022/04/19 10:00:44;;;;;;;3.20;2.83;;;13.80;93.80;;;;;;488448;241;29426;-72
2022/04/19 10:09:43;;;;;;;3.40;3.10;;;14.20;94.20;;;;;;489640;241;28781;-74
2022/04/19 10:11:44;;;;;;;3.07;2.87;;;14.30;93.70;;;;;;492685;240;29478;-71
2022/04/19 10:13:45;;;;;;;2.40;2.20;;;14.00;93.00;;;;;;497540;236;28769;-73
2022/04/19 10:15:47;;;;;;;2.73;2.53;;;13.80;94.30;;;;;;486573;241;28928;-71
2022/04/19 10:17:48;;;;;;;3.40;3.10;;;14.00;97.60;;;;;;486031;241;28530;-71
2022/04/19 10:19:49;;;;;;;2.90;2.60;;;14.20;95.20;;;;;;488060;242;28461;-75
2022/04/19 10:21:51;;;;;;;2.90;2.70;;;14.30;95.00;;;;;;488745;241;28500;-73
2022/04/19 10:23:52;;;;;;;4.13;3.23;;;14.40;94.50;;;;;;487519;241;28435;-74
2022/04/19 10:25:53;;;;;;;3.27;3.03;;;14.30;94.90;;;;;;487555;241;28876;-76
2022/04/19 10:27:54;;;;;;;3.73;2.80;;;14.30;95.40;;;;;;487479;241;28787;-73
2022/04/19 10:29:55;;;;;;;3.53;2.70;;;14.20;95.80;;;;;;487139;241;28646;-75
2022/04/19 10:31:58;;;;;;;2.83;2.60;;;14.00;95.00;;;;;;486183;241;28909;-74
2022/04/19 10:33:58;;;;;;;2.87;2.67;;;13.90;95.90;;;;;;487531;241;29258;-73
2022/04/19 10:35:59;;;;;;;3.00;2.80;;;14.00;96.70;;;;;;485561;241;30038;-74
2022/04/19 10:38:00;;;;;;;2.97;2.70;;;13.90;95.20;;;;;;486533;241;28700;-72
2022/04/19 10:40:02;;;;;;;3.07;2.77;;;14.10;95.10;;;;;;488996;241;28735;-74
2022/04/19 10:42:03;;;;;;;2.60;2.40;;;14.20;94.60;;;;;;486975;241;28321;-73
2022/04/19 10:44:04;;;;;;;3.53;3.03;;;14.20;93.90;;;;;;486979;241;28419;-73
2022/04/19 10:46:05;;;;;;;3.10;2.80;;;14.30;93.30;;;;;;486464;241;28332;-75
2022/04/19 10:48:07;;;;;;;2.33;2.23;;;14.90;93.00;;;;;;486646;241;28404;-73
2022/04/19 10:50:08;;;;;;;3.70;3.00;;;14.90;92.60;;;;;;488017;241;29330;-74
2022/04/19 10:52:09;;;;;;;2.70;2.50;;;14.90;90.10;;;;;;489480;241;29263;-73
2022/04/19 10:54:10;;;;;;;4.63;2.63;;;14.50;90.70;;;;;;489346;241;29280;-74
2022/04/19 10:56:12;;;;;;;2.90;2.70;;;14.30;92.20;;;;;;488779;241;28726;-75
2022/04/19 10:58:16;;;;;;;5.50;2.70;;;14.30;92.60;;;;;;486083;241;28397;-73
2022/04/19 11:00:14;;;;;;;3.27;2.97;;;15.00;89.50;;;;;;486520;241;28769;-74
2022/04/19 11:02:15;;;;;;;2.40;2.20;;;14.80;89.70;;;;;;486870;241;29267;-78
2022/04/19 11:04:17;;;;;;;2.47;2.37;;;15.00;90.60;;;;;;487991;241;29425;-73
2022/04/19 11:06:32;;;;;;;3.17;2.30;;;15.00;92.10;;;;;;488091;241;28727;-73
2022/04/19 11:08:29;;;;;;;3.10;2.80;;;14.90;91.30;;;;;;486968;241;29296;-73